Time,TemperatureF,DewpointF,PressureIn,WindDirection,WindDirectionDegrees,WindSpeedMPH,WindSpeedGustMPH,Humidity,HourlyPrecipIn,Conditions,Clouds,dailyrainin,SoftwareType,DateUTC
2013-11-02 00:07:00,-999.0,-99.9,30.05,North,-999,-999.0,-999.0,-999,0.00,,,0.00,weatherlink.com 1.10,2013-11-02 06:07:00,
2013-11-02 00:22:00,-999.0,-99.9,30.05,North,-999,-999.0,-999.0,-999,0.00,,,0.00,weatherlink.com 1.10,2013-11-02 06:22:00,
2013-11-02 00:37:00,-999.0,-99.9,30.05,North,-999,-999.0,-999.0,-999,0.00,,,0.00,weatherlink.com 1.10,2013-11-02 06:37:00,
2013-11-02 00:52:00,-999.0,-99.9,30.05,North,-999,-999.0,-999.0,-999,0.00,,,0.00,weatherlink.com 1.10,2013-11-02 06:52:00,
2013-11-02 01:07:00,-999.0,-99.9,30.05,North,-999,-999.0,-999.0,-999,0.00,,,0.00,weatherlink.com 1.10,2013-11-02 07:07:00,
2013-11-02 01:22:00,-999.0,-99.9,30.05,North,-999,-999.0,-999.0,-999,0.00,,,0.00,weatherlink.com 1.10,2013-11-02 07:22:00,
2013-11-02 01:37:00,-999.0,-99.9,30.06,North,-999,-999.0,-999.0,-999,0.00,,,0.00,weatherlink.com 1.10,2013-11-02 07:37:00,
2013-11-02 01:52:00,-999.0,-99.9,30.06,North,-999,-999.0,-999.0,-999,0.00,,,0.00,weatherlink.com 1.10,2013-11-02 07:52:00,
2013-11-02 02:07:00,-999.0,-99.9,30.05,North,-999,-999.0,-999.0,-999,0.00,,,0.00,weatherlink.com 1.10,2013-11-02 08:07:00,
2013-11-02 02:22:00,-999.0,-99.9,30.05,North,-999,-999.0,-999.0,-999,0.00,,,0.00,weatherlink.com 1.10,2013-11-02 08:22:00,
2013-11-02 02:37:00,-999.0,-99.9,30.05,North,-999,-999.0,-999.0,-999,0.00,,,0.00,weatherlink.com 1.10,2013-11-02 08:37:00,
2013-11-02 02:52:00,-999.0,-99.9,30.05,North,-999,-999.0,-999.0,-999,0.00,,,0.00,weatherlink.com 1.10,2013-11-02 08:52:00,
2013-11-02 03:07:00,-999.0,-99.9,30.04,North,-999,-999.0,-999.0,-999,0.00,,,0.00,weatherlink.com 1.10,2013-11-02 09:07:00,
2013-11-02 03:22:00,-999.0,-99.9,30.05,North,-999,-999.0,-999.0,-999,0.00,,,0.00,weatherlink.com 1.10,2013-11-02 09:22:00,
2013-11-02 03:38:00,-999.0,-99.9,30.04,North,-999,-999.0,-999.0,-999,0.00,,,0.00,weatherlink.com 1.10,2013-11-02 09:38:00,
2013-11-02 03:53:00,-999.0,-99.9,30.04,North,-999,-999.0,-999.0,-999,0.00,,,0.00,weatherlink.com 1.10,2013-11-02 09:53:00,
2013-11-02 04:08:00,-999.0,-99.9,30.03,North,-999,-999.0,-999.0,-999,0.00,,,0.00,weatherlink.com 1.10,2013-11-02 10:08:00,
2013-11-02 04:23:00,-999.0,-99.9,30.02,North,-999,-999.0,-999.0,-999,0.00,,,0.00,weatherlink.com 1.10,2013-11-02 10:23:00,
2013-11-02 04:38:00,-999.0,-99.9,30.02,North,-999,-999.0,-999.0,-999,0.00,,,0.00,weatherlink.com 1.10,2013-11-02 10:38:00,
2013-11-02 04:53:00,-999.0,-99.9,30.02,North,-999,-999.0,-999.0,-999,0.00,,,0.00,weatherlink.com 1.10,2013-11-02 10:53:00,
2013-11-02 05:08:00,-999.0,-99.9,30.02,North,-999,-999.0,-999.0,-999,0.00,,,0.00,weatherlink.com 1.10,2013-11-02 11:08:00,
2013-11-02 05:23:00,-999.0,-99.9,30.02,North,-999,-999.0,-999.0,-999,0.00,,,0.00,weatherlink.com 1.10,2013-11-02 11:23:00,
2013-11-02 05:38:00,-999.0,-99.9,30.02,North,-999,-999.0,-999.0,-999,0.00,,,0.00,weatherlink.com 1.10,2013-11-02 11:38:00,
2013-11-02 05:53:00,-999.0,-99.9,30.02,North,-999,-999.0,-999.0,-999,0.00,,,0.00,weatherlink.com 1.10,2013-11-02 11:53:00,
2013-11-02 06:08:00,-999.0,-99.9,30.01,North,-999,-999.0,-999.0,-999,0.00,,,0.00,weatherlink.com 1.10,2013-11-02 12:08:00,
2013-11-02 06:23:00,-999.0,-99.9,30.00,North,-999,-999.0,-999.0,-999,0.00,,,0.00,weatherlink.com 1.10,2013-11-02 12:23:00,
2013-11-02 06:38:00,-999.0,-99.9,30.00,North,-999,-999.0,-999.0,-999,0.00,,,0.00,weatherlink.com 1.10,2013-11-02 12:38:00,
2013-11-02 06:53:00,-999.0,-99.9,30.00,North,-999,-999.0,-999.0,-999,0.00,,,0.00,weatherlink.com 1.10,2013-11-02 12:53:00,
2013-11-02 07:09:00,-999.0,-99.9,29.99,North,-999,-999.0,-999.0,-999,0.00,,,0.00,weatherlink.com 1.10,2013-11-02 13:09:00,
2013-11-02 07:24:00,-999.0,-99.9,30.00,North,-999,-999.0,-999.0,-999,0.00,,,0.00,weatherlink.com 1.10,2013-11-02 13:24:00,
2013-11-02 07:39:00,-999.0,-99.9,29.99,North,-999,-999.0,-999.0,-999,0.00,,,0.00,weatherlink.com 1.10,2013-11-02 13:39:00,
2013-11-02 07:54:00,-999.0,-99.9,29.99,North,-999,-999.0,-999.0,-999,0.00,,,0.00,weatherlink.com 1.10,2013-11-02 13:54:00,
2013-11-02 08:09:00,24.3,22.0,29.99,NW,307,0.0,0.0,89,0.00,,,0.00,weatherlink.com 1.10,2013-11-02 14:09:00,
2013-11-02 08:24:00,26.8,24.0,30.00,NW,306,0.0,0.0,87,0.00,,,0.00,weatherlink.com 1.10,2013-11-02 14:24:00,
2013-11-02 08:39:00,29.2,24.0,30.00,NW,307,0.0,0.0,81,0.00,,,0.00,weatherlink.com 1.10,2013-11-02 14:39:00,
2013-11-02 08:54:00,31.7,26.0,30.01,NW,311,0.0,0.0,78,0.00,,,0.00,weatherlink.com 1.10,2013-11-02 14:54:00,
2013-11-02 09:09:00,33.8,27.0,30.00,ESE,113,0.0,3.0,75,0.00,,,0.00,weatherlink.com 1.10,2013-11-02 15:09:00,
2013-11-02 09:24:00,36.2,29.0,30.00,East,86,1.0,3.0,76,0.00,,,0.00,weatherlink.com 1.10,2013-11-02 15:24:00,
2013-11-02 09:39:00,38.7,30.0,30.00,South,172,0.0,3.0,70,0.00,,,0.00,weatherlink.com 1.10,2013-11-02 15:39:00,
2013-11-02 09:55:00,41.0,31.0,29.99,SE,139,1.0,3.0,67,0.00,,,0.00,weatherlink.com 1.10,2013-11-02 15:55:00,
2013-11-02 10:09:00,43.2,31.0,29.99,SSE,154,0.0,5.0,63,0.00,,,0.00,weatherlink.com 1.10,2013-11-02 16:09:00,
2013-11-02 10:24:00,44.7,31.0,29.98,South,190,1.0,5.0,59,0.00,,,0.00,weatherlink.com 1.10,2013-11-02 16:24:00,
2013-11-02 10:40:00,46.2,31.0,29.98,SSW,197,1.0,5.0,56,0.00,,,0.00,weatherlink.com 1.10,2013-11-02 16:40:00,
2013-11-02 10:55:00,48.1,31.0,29.96,SSE,160,0.0,7.0,53,0.00,,,0.00,weatherlink.com 1.10,2013-11-02 16:55:00,
2013-11-02 11:10:00,51.5,32.0,29.95,WSW,248,3.0,6.0,48,0.00,,,0.00,weatherlink.com 1.10,2013-11-02 17:10:00,
2013-11-02 11:25:00,53.9,32.0,29.93,South,179,2.0,4.0,44,0.00,,,0.00,weatherlink.com 1.10,2013-11-02 17:25:00,
2013-11-02 11:40:00,56.2,29.0,29.92,South,187,3.0,8.0,35,0.00,,,0.00,weatherlink.com 1.10,2013-11-02 17:40:00,
2013-11-02 11:55:00,56.8,28.0,29.91,South,169,4.0,10.0,33,0.00,,,0.00,weatherlink.com 1.10,2013-11-02 17:55:00,
2013-11-02 12:10:00,57.6,27.0,29.90,South,180,5.0,10.0,31,0.00,,,0.00,weatherlink.com 1.10,2013-11-02 18:10:00,
2013-11-02 12:25:00,58.6,28.0,29.88,South,187,3.0,10.0,31,0.00,,,0.00,weatherlink.com 1.10,2013-11-02 18:25:00,
2013-11-02 12:40:00,59.7,28.0,29.86,SSW,208,4.0,8.0,30,0.00,,,0.00,weatherlink.com 1.10,2013-11-02 18:40:00,
2013-11-02 12:55:00,60.8,28.0,29.85,SSE,160,5.0,9.0,29,0.00,,,0.00,weatherlink.com 1.10,2013-11-02 18:55:00,
2013-11-02 13:10:00,62.1,28.0,29.83,SSE,151,7.0,9.0,27,0.00,,,0.00,weatherlink.com 1.10,2013-11-02 19:10:00,
2013-11-02 13:25:00,62.9,26.0,29.81,SSE,153,6.0,10.0,25,0.00,,,0.00,weatherlink.com 1.10,2013-11-02 19:25:00,
2013-11-02 13:40:00,64.0,26.0,29.79,South,169,4.0,11.0,24,0.00,,,0.00,weatherlink.com 1.10,2013-11-02 19:40:00,
2013-11-02 13:55:00,65.0,27.0,29.77,SE,145,1.0,10.0,24,0.00,,,0.00,weatherlink.com 1.10,2013-11-02 19:55:00,
2013-11-02 14:10:00,65.4,28.0,29.76,SW,222,5.0,10.0,24,0.00,,,0.00,weatherlink.com 1.10,2013-11-02 20:10:00,
2013-11-02 14:26:00,65.5,27.0,29.75,SSE,167,11.0,11.0,23,0.00,,,0.00,weatherlink.com 1.10,2013-11-02 20:26:00,
2013-11-02 14:41:00,65.0,26.0,29.73,SSW,203,4.0,12.0,23,0.00,,,0.00,weatherlink.com 1.10,2013-11-02 20:41:00,
2013-11-02 14:56:00,65.0,27.0,29.72,South,191,6.0,13.0,24,0.00,,,0.00,weatherlink.com 1.10,2013-11-02 20:56:00,
2013-11-02 15:11:00,65.1,26.0,29.70,South,187,4.0,11.0,23,0.00,,,0.00,weatherlink.com 1.10,2013-11-02 21:11:00,
2013-11-02 15:26:00,65.2,27.0,29.69,SSW,210,3.0,12.0,24,0.00,,,0.00,weatherlink.com 1.10,2013-11-02 21:26:00,
2013-11-02 15:41:00,65.6,28.0,29.68,SSW,203,3.0,11.0,24,0.00,,,0.00,weatherlink.com 1.10,2013-11-02 21:41:00,
2013-11-02 15:56:00,66.1,26.0,29.66,South,176,1.0,14.0,22,0.00,,,0.00,weatherlink.com 1.10,2013-11-02 21:56:00,
2013-11-02 16:11:00,65.7,26.0,29.64,SW,221,5.0,13.0,22,0.00,,,0.00,weatherlink.com 1.10,2013-11-02 22:11:00,
2013-11-02 16:26:00,65.9,26.0,29.65,SSE,167,4.0,11.0,22,0.00,,,0.00,weatherlink.com 1.10,2013-11-02 22:26:00,
2013-11-02 16:41:00,65.9,27.0,29.63,SSW,195,6.0,9.0,23,0.00,,,0.00,weatherlink.com 1.10,2013-11-02 22:41:00,
2013-11-02 16:56:00,64.2,28.0,29.61,South,181,4.0,10.0,25,0.00,,,0.00,weatherlink.com 1.10,2013-11-02 22:56:00,
2013-11-02 17:11:00,62.0,27.0,29.60,SSW,208,6.0,14.0,27,0.00,,,0.00,weatherlink.com 1.10,2013-11-02 23:11:00,
2013-11-02 17:26:00,60.0,27.0,29.59,SSE,165,6.0,16.0,29,0.00,,,0.00,weatherlink.com 1.10,2013-11-02 23:26:00,
2013-11-02 17:41:00,57.3,28.0,29.58,SSW,201,3.0,13.0,33,0.00,,,0.00,weatherlink.com 1.10,2013-11-02 23:41:00,
2013-11-02 17:56:00,56.4,30.0,29.57,SSW,200,5.0,13.0,36,0.00,,,0.00,weatherlink.com 1.10,2013-11-02 23:56:00,
2013-11-02 18:11:00,55.9,30.0,29.58,South,172,2.0,13.0,37,0.00,,,0.00,weatherlink.com 1.10,2013-11-03 00:11:00,
2013-11-02 18:26:00,55.2,30.0,29.58,SE,146,2.0,9.0,38,0.00,,,0.00,weatherlink.com 1.10,2013-11-03 00:26:00,
2013-11-02 18:41:00,52.7,30.0,29.59,SSW,207,0.0,4.0,42,0.00,,,0.00,weatherlink.com 1.10,2013-11-03 00:41:00,
2013-11-02 18:56:00,50.8,30.0,29.58,South,183,2.0,5.0,45,0.00,,,0.00,weatherlink.com 1.10,2013-11-03 00:56:00,
2013-11-02 19:11:00,50.8,30.0,29.59,South,170,0.0,4.0,45,0.00,,,0.00,weatherlink.com 1.10,2013-11-03 01:11:00,
2013-11-02 19:26:00,49.6,29.0,29.58,SSW,194,0.0,3.0,46,0.00,,,0.00,weatherlink.com 1.10,2013-11-03 01:26:00,
2013-11-02 19:41:00,48.4,29.0,29.58,SSW,195,2.0,6.0,48,0.00,,,0.00,weatherlink.com 1.10,2013-11-03 01:41:00,
2013-11-02 19:56:00,47.2,28.0,29.58,SSE,153,2.0,3.0,48,0.00,,,0.00,weatherlink.com 1.10,2013-11-03 01:56:00,
2013-11-02 20:11:00,47.4,28.0,29.57,South,178,0.0,5.0,47,0.00,,,0.00,weatherlink.com 1.10,2013-11-03 02:11:00,
2013-11-02 20:26:00,46.7,27.0,29.57,WSW,239,0.0,3.0,46,0.00,,,0.00,weatherlink.com 1.10,2013-11-03 02:26:00,
2013-11-02 20:41:00,45.1,27.0,29.56,SE,138,0.0,2.0,49,0.00,,,0.00,weatherlink.com 1.10,2013-11-03 02:41:00,
2013-11-02 20:56:00,43.9,27.0,29.56,SSW,201,0.0,0.0,51,0.00,,,0.00,weatherlink.com 1.10,2013-11-03 02:56:00,
2013-11-02 21:11:00,42.9,26.0,29.56,South,176,0.0,1.0,52,0.00,,,0.00,weatherlink.com 1.10,2013-11-03 03:11:00,
2013-11-02 21:26:00,41.9,26.0,29.56,SE,142,0.0,0.0,54,0.00,,,0.00,weatherlink.com 1.10,2013-11-03 03:26:00,
2013-11-02 21:41:00,42.7,26.0,29.55,SSE,159,0.0,0.0,52,0.00,,,0.00,weatherlink.com 1.10,2013-11-03 03:41:00,
2013-11-02 21:56:00,41.6,26.0,29.55,SSE,159,0.0,0.0,55,0.00,,,0.00,weatherlink.com 1.10,2013-11-03 03:56:00,
2013-11-02 22:11:00,41.3,26.0,29.54,ESE,103,0.0,1.0,56,0.00,,,0.00,weatherlink.com 1.10,2013-11-03 04:11:00,
2013-11-02 22:26:00,41.6,26.0,29.54,ESE,105,0.0,0.0,55,0.00,,,0.00,weatherlink.com 1.10,2013-11-03 04:26:00,
2013-11-02 22:41:00,41.1,26.0,29.55,NW,313,0.0,1.0,56,0.00,,,0.00,weatherlink.com 1.10,2013-11-03 04:41:00,
2013-11-02 22:56:00,40.5,27.0,29.54,NW,314,0.0,0.0,58,0.00,,,0.00,weatherlink.com 1.10,2013-11-03 04:56:00,
2013-11-02 23:11:00,40.3,26.0,29.54,West,273,0.0,1.0,58,0.00,,,0.00,weatherlink.com 1.10,2013-11-03 05:11:00,
2013-11-02 23:26:00,40.4,27.0,29.55,NNE,18,0.0,0.0,59,0.00,,,0.00,weatherlink.com 1.10,2013-11-03 05:26:00,
2013-11-02 23:41:00,39.6,27.0,29.53,SSW,203,0.0,0.0,60,0.00,,,0.00,weatherlink.com 1.10,2013-11-03 05:41:00,
2013-11-02 23:56:00,38.0,27.0,29.53,West,270,0.0,0.0,65,0.00,,,0.00,weatherlink.com 1.10,2013-11-03 05:56:00,